Time;durP1;ratioP1;P1;durP2;ratioP2;P2;SDS_P1;SDS_P2;PMS_P1;PMS_P2;Temp;Humidity;BMP_temperature;BMP_pressure;BME280_temperature;BME280_humidity;BME280_pressure;Samples;Min_cycle;Max_cycle;Signal;HPM_P1;HPM_P2
2022/06/19 00:01:59;;;;;;;13.82;4.00;;;22.80;98.30;;;;;;5034025;28;20033;-76
2022/06/19 00:04:24;;;;;;;14.43;4.03;;;22.70;97.80;;;;;;5035192;28;20124;-76
2022/06/19 00:06:50;;;;;;;11.15;3.88;;;23.00;97.00;;;;;;5018269;28;20498;-77
2022/06/19 00:09:16;;;;;;;17.52;4.03;;;23.20;96.60;;;;;;5035546;28;20079;-76
2022/06/19 00:11:42;;;;;;;12.55;3.97;;;23.20;96.20;;;;;;5021335;28;20102;-77
2022/06/19 00:14:09;;;;;;;12.95;3.97;;;23.30;96.60;;;;;;5034514;28;20029;-76
2022/06/19 00:16:35;;;;;;;14.50;3.55;;;23.40;96.20;;;;;;5034220;28;20090;-75
2022/06/19 00:19:02;;;;;;;7.85;3.33;;;23.20;96.00;;;;;;5034173;28;20045;-75
2022/06/19 00:21:28;;;;;;;12.15;3.75;;;23.40;96.20;;;;;;5016118;28;20032;-76
2022/06/19 00:23:54;;;;;;;12.57;3.83;;;23.20;96.80;;;;;;5034189;28;20495;-76
2022/06/19 00:26:19;;;;;;;10.80;3.67;;;23.20;96.60;;;;;;5034236;28;20033;-76
2022/06/19 00:28:47;;;;;;;9.88;4.28;;;23.20;96.20;;;;;;5034305;28;20026;-76
2022/06/19 00:31:13;;;;;;;9.43;3.70;;;23.30;96.10;;;;;;5033406;28;20040;-76
2022/06/19 00:33:39;;;;;;;11.63;3.95;;;23.40;96.10;;;;;;5028567;28;20044;-76
2022/06/19 00:36:05;;;;;;;15.70;4.28;;;23.40;95.60;;;;;;5035974;28;20116;-77
2022/06/19 00:38:32;;;;;;;10.90;3.40;;;23.20;95.80;;;;;;5033483;28;20460;-77
2022/06/19 00:40:59;;;;;;;11.32;3.45;;;23.20;95.80;;;;;;5032163;28;20064;-77
2022/06/19 00:43:26;;;;;;;15.40;4.18;;;23.20;95.70;;;;;;5021507;28;20096;-78
2022/06/19 00:45:53;;;;;;;14.75;3.85;;;23.00;97.10;;;;;;5028364;28;20029;-77
2022/06/19 00:48:24;;;;;;;11.35;3.78;;;22.40;98.40;;;;;;5027365;28;20029;-79
2022/06/19 00:50:54;;;;;;;13.50;3.90;;;21.90;99.00;;;;;;5041359;28;20025;-77
2022/06/19 00:53:29;;;;;;;13.63;3.35;;;21.80;99.90;;;;;;5042545;28;20029;-77
2022/06/19 00:55:56;;;;;;;13.60;4.22;;;22.00;99.50;;;;;;5042888;28;20025;-78
2022/06/19 00:58:36;;;;;;;10.82;3.67;;;22.00;99.30;;;;;;5040374;28;20037;-78
2022/06/19 01:01:07;;;;;;;11.98;3.40;;;22.10;99.00;;;;;;5044932;28;20036;-78
2022/06/19 01:03:50;;;;;;;13.48;3.58;;;22.00;99.30;;;;;;5027074;28;20052;-79
2022/06/19 01:06:15;;;;;;;13.05;3.53;;;21.90;99.30;;;;;;5044951;28;20391;-78
2022/06/19 01:08:41;;;;;;;14.93;3.42;;;21.90;99.30;;;;;;5038034;28;20036;-78
2022/06/19 01:11:07;;;;;;;10.60;3.58;;;21.80;99.40;;;;;;5042895;28;20037;-79
2022/06/19 01:13:34;;;;;;;10.95;3.72;;;21.80;99.50;;;;;;5018982;28;20483;-78
2022/06/19 01:16:01;;;;;;;10.90;4.28;;;21.90;99.10;;;;;;5036553;28;20055;-78
2022/06/19 01:18:29;;;;;;;12.63;3.85;;;21.70;99.30;;;;;;5029076;28;20476;-78
2022/06/19 01:21:00;;;;;;;14.85;4.20;;;21.80;99.80;;;;;;5031433;28;20037;-77
2022/06/19 01:23:51;;;;;;;12.40;4.03;;;21.60;99.90;;;;;;5031407;28;20048;-78
2022/06/19 01:26:21;;;;;;;13.40;3.90;;;21.60;99.90;;;;;;5013884;28;20026;-76
2022/06/19 01:28:56;;;;;;;8.40;3.80;;;21.50;99.90;;;;;;5033146;28;20376;-76
2022/06/19 01:31:50;;;;;;;12.90;4.15;;;21.70;99.30;;;;;;5011388;28;20029;-76
2022/06/19 01:34:28;;;;;;;7.97;3.65;;;21.70;99.20;;;;;;5019758;28;20022;-76
2022/06/19 01:37:03;;;;;;;12.90;4.22;;;21.50;99.90;;;;;;5020999;28;20411;-77
2022/06/19 01:39:36;;;;;;;11.27;3.60;;;21.30;99.90;;;;;;5026023;28;20026;-77
2022/06/19 01:42:03;;;;;;;10.90;3.78;;;21.20;99.90;;;;;;5022740;28;20359;-78
2022/06/19 01:44:29;;;;;;;12.73;3.70;;;20.90;99.90;;;;;;5038651;28;20025;-78
2022/06/19 01:46:55;;;;;;;12.80;4.38;;;20.80;99.90;;;;;;5038290;28;20025;-78
2022/06/19 01:49:22;;;;;;;12.15;4.00;;;20.70;99.90;;;;;;5028413;28;20052;-78
2022/06/19 01:51:48;;;;;;;11.73;3.60;;;20.80;99.90;;;;;;5018191;28;20072;-76
2022/06/19 01:54:21;;;;;;;12.80;3.63;;;20.60;99.90;;;;;;5036602;28;20047;-77
2022/06/19 01:56:50;;;;;;;16.88;4.68;;;20.50;99.90;;;;;;5036032;28;20024;-77
2022/06/19 01:59:16;;;;;;;9.98;4.45;;;20.30;99.90;;;;;;5034349;28;20432;-76
2022/06/19 02:01:42;;;;;;;13.13;4.60;;;20.30;99.90;;;;;;5029769;28;20030;-76
2022/06/19 02:04:08;;;;;;;14.88;3.70;;;20.40;99.90;;;;;;5023521;28;20128;-77
2022/06/19 02:06:44;;;;;;;12.82;4.60;;;20.30;99.90;;;;;;5028510;28;20107;-76
2022/06/19 02:09:12;;;;;;;14.07;4.68;;;20.30;99.90;;;;;;5032287;28;20549;-76
2022/06/19 02:11:38;;;;;;;8.55;4.07;;;20.40;99.90;;;;;;5031630;28;20029;-76
2022/06/19 02:14:06;;;;;;;15.82;5.00;;;20.60;99.90;;;;;;5025335;28;20018;-75
2022/06/19 02:16:35;;;;;;;14.43;4.93;;;20.70;99.90;;;;;;5019343;28;20480;-75
2022/06/19 02:19:01;;;;;;;14.05;4.80;;;20.70;99.90;;;;;;5032106;28;20487;-75
2022/06/19 02:21:38;;;;;;;14.25;3.92;;;20.50;99.90;;;;;;5025373;28;20037;-75
2022/06/19 02:24:05;;;;;;;14.50;4.80;;;20.70;99.90;;;;;;5028483;28;20083;-77
2022/06/19 02:26:34;;;;;;;13.77;4.38;;;20.50;99.90;;;;;;5033305;28;20021;-77
2022/06/19 02:28:59;;;;;;;13.35;4.13;;;20.50;99.90;;;;;;5018270;28;20025;-76
2022/06/19 02:31:26;;;;;;;9.65;4.22;;;20.50;99.90;;;;;;5032615;28;20021;-77
2022/06/19 02:33:55;;;;;;;12.07;4.30;;;21.10;99.90;;;;;;5028872;28;20060;-78
2022/06/19 02:36:46;;;;;;;12.38;4.45;;;20.70;99.90;;;;;;5023563;28;20030;-78
2022/06/19 02:39:30;;;;;;;13.88;4.63;;;20.30;99.90;;;;;;5021723;28;20025;-78
2022/06/19 02:42:35;;;;;;;10.48;3.97;;;20.20;99.90;;;;;;5031909;28;20026;-75
2022/06/19 02:45:05;;;;;;;8.52;3.35;;;20.40;99.90;;;;;;5031686;28;20032;-75
2022/06/19 02:47:34;;;;;;;12.65;3.67;;;20.60;99.90;;;;;;5019732;28;20030;-76
2022/06/19 02:50:00;;;;;;;9.48;4.20;;;20.50;99.90;;;;;;5023203;28;20026;-75
2022/06/19 02:52:26;;;;;;;13.88;4.35;;;20.60;99.90;;;;;;5020675;28;20032;-75
2022/06/19 02:54:51;;;;;;;12.50;4.78;;;20.60;99.90;;;;;;5026794;28;20120;-75
2022/06/19 02:57:18;;;;;;;14.75;4.65;;;20.20;99.90;;;;;;5031542;28;20040;-76
2022/06/19 02:59:43;;;;;;;12.13;4.53;;;20.00;99.90;;;;;;5031591;28;20025;-76
2022/06/19 03:02:12;;;;;;;11.55;4.20;;;20.00;99.90;;;;;;5023334;28;20048;-76
2022/06/19 03:04:45;;;;;;;14.25;4.00;;;20.10;99.90;;;;;;5032743;28;20017;-76
2022/06/19 03:07:10;;;;;;;9.95;4.30;;;20.00;99.90;;;;;;5014526;28;20021;-76
2022/06/19 03:09:36;;;;;;;13.13;4.57;;;19.40;99.90;;;;;;5032470;28;20025;-77
2022/06/19 03:12:02;;;;;;;10.15;4.43;;;19.60;99.90;;;;;;5031502;28;20055;-76
2022/06/19 03:14:28;;;;;;;7.90;4.35;;;19.80;99.90;;;;;;5034317;28;20022;-77
2022/06/19 03:16:53;;;;;;;8.88;4.60;;;19.90;99.90;;;;;;5036381;28;20053;-77
2022/06/19 03:19:19;;;;;;;10.55;4.03;;;19.90;99.90;;;;;;5035866;28;20028;-75
2022/06/19 03:21:44;;;;;;;13.48;4.28;;;19.80;99.90;;;;;;5035204;28;20025;-76
2022/06/19 03:24:10;;;;;;;9.98;4.13;;;19.90;99.90;;;;;;5032145;28;20075;-77
2022/06/19 03:26:36;;;;;;;11.65;3.92;;;19.80;99.90;;;;;;5041287;28;20032;-76
2022/06/19 03:29:02;;;;;;;8.98;4.10;;;19.80;99.90;;;;;;5037355;28;20045;-76
2022/06/19 03:31:29;;;;;;;11.70;3.90;;;19.80;99.90;;;;;;5038654;28;20072;-77
2022/06/19 03:33:55;;;;;;;8.95;4.05;;;19.80;99.90;;;;;;5039190;28;20029;-77
2022/06/19 03:36:21;;;;;;;12.13;4.70;;;19.60;99.90;;;;;;5039227;28;20522;-77
2022/06/19 03:38:47;;;;;;;12.63;5.28;;;19.80;99.90;;;;;;5020609;28;20107;-76
2022/06/19 03:41:14;;;;;;;12.90;4.65;;;19.90;99.90;;;;;;5034686;28;20032;-74
2022/06/19 03:43:40;;;;;;;9.02;4.07;;;20.00;99.90;;;;;;5035925;28;20056;-76
2022/06/19 03:46:14;;;;;;;9.38;4.47;;;20.00;99.90;;;;;;5036383;28;20044;-76
2022/06/19 03:48:45;;;;;;;7.95;3.70;;;20.00;99.90;;;;;;5035633;28;20017;-76
2022/06/19 03:51:10;;;;;;;11.45;4.47;;;19.90;99.90;;;;;;5053126;28;20477;-76
2022/06/19 03:53:36;;;;;;;12.40;4.57;;;19.50;99.90;;;;;;5031288;28;20073;-77
2022/06/19 03:56:03;;;;;;;12.13;4.40;;;19.40;99.90;;;;;;5017472;28;20229;-73
2022/06/19 03:58:45;;;;;;;14.05;4.90;;;19.30;99.90;;;;;;5034851;28;20032;-76
2022/06/19 04:01:22;;;;;;;13.60;4.70;;;19.40;99.90;;;;;;5034034;28;20040;-76
2022/06/19 04:03:49;;;;;;;9.88;4.18;;;19.50;99.90;;;;;;5027241;28;20037;-77
2022/06/19 04:06:17;;;;;;;13.00;4.40;;;19.90;99.90;;;;;;5034419;28;20029;-76
2022/06/19 04:08:46;;;;;;;10.88;4.50;;;20.30;99.90;;;;;;5033204;28;20037;-76
2022/06/19 04:11:13;;;;;;;12.10;4.80;;;20.40;99.90;;;;;;5017998;28;20029;-76
2022/06/19 04:13:38;;;;;;;11.30;5.00;;;20.30;99.90;;;;;;5035142;28;20033;-77
2022/06/19 04:16:06;;;;;;;13.73;4.47;;;20.00;99.90;;;;;;5034770;28;20113;-76
2022/06/19 04:18:32;;;;;;;8.95;4.32;;;20.10;99.90;;;;;;5034779;28;20030;-76
2022/06/19 04:20:59;;;;;;;9.20;4.32;;;20.20;99.90;;;;;;5035089;28;20103;-76
2022/06/19 04:23:25;;;;;;;9.88;4.35;;;20.30;99.90;;;;;;5034918;28;20029;-76
2022/06/19 04:25:52;;;;;;;12.60;4.60;;;20.20;99.90;;;;;;5033203;28;20029;-74
2022/06/19 04:28:22;;;;;;;11.63;4.35;;;20.30;99.90;;;;;;5023799;28;20026;-76
2022/06/19 04:30:49;;;;;;;9.23;4.43;;;20.40;99.90;;;;;;5033378;28;20036;-76
2022/06/19 04:33:15;;;;;;;10.82;4.50;;;20.50;99.90;;;;;;5034167;28;20029;-76
2022/06/19 04:35:41;;;;;;;12.18;4.07;;;20.50;99.90;;;;;;5029758;28;20415;-75
2022/06/19 04:38:07;;;;;;;10.73;4.90;;;20.40;99.90;;;;;;5033938;28;20109;-75
2022/06/19 04:40:36;;;;;;;18.88;5.47;;;19.80;99.90;;;;;;5033184;28;20060;-76
2022/06/19 04:43:02;;;;;;;12.40;5.20;;;19.90;99.90;;;;;;5033867;28;20033;-75
2022/06/19 04:45:29;;;;;;;8.63;4.55;;;19.80;99.90;;;;;;5033677;28;20041;-76
2022/06/19 04:47:54;;;;;;;8.35;3.90;;;19.80;99.90;;;;;;5033826;28;20029;-77
2022/06/19 04:50:20;;;;;;;11.18;3.97;;;19.90;99.90;;;;;;5021938;28;20030;-76
2022/06/19 04:52:45;;;;;;;10.32;4.60;;;20.10;99.90;;;;;;5026123;28;20099;-76
2022/06/19 04:55:12;;;;;;;12.88;4.90;;;20.70;99.90;;;;;;5033579;28;20021;-76
2022/06/19 04:57:38;;;;;;;15.10;4.60;;;20.80;99.90;;;;;;5033580;28;20372;-76
2022/06/19 05:00:07;;;;;;;11.43;4.40;;;21.00;99.90;;;;;;5033625;28;20082;-76
2022/06/19 05:02:32;;;;;;;11.68;5.20;;;21.20;99.90;;;;;;5022366;28;20033;-75
2022/06/19 05:04:58;;;;;;;13.40;4.93;;;21.30;99.90;;;;;;5033506;28;20029;-76
2022/06/19 05:07:24;;;;;;;12.52;4.60;;;21.40;99.90;;;;;;5025332;28;20060;-75
2022/06/19 05:09:49;;;;;;;10.55;4.22;;;21.60;99.90;;;;;;5033360;28;20021;-76
2022/06/19 05:12:15;;;;;;;13.48;4.38;;;21.80;99.90;;;;;;5021563;28;20049;-75
2022/06/19 05:14:41;;;;;;;9.75;4.53;;;21.90;99.90;;;;;;5033101;28;20033;-76
2022/06/19 05:17:06;;;;;;;10.75;4.50;;;22.00;99.90;;;;;;5033226;28;20025;-76
2022/06/19 05:19:32;;;;;;;10.73;4.40;;;22.00;99.90;;;;;;5033086;28;20026;-75
2022/06/19 05:22:00;;;;;;;10.00;4.25;;;22.00;99.90;;;;;;5032576;28;20033;-76
2022/06/19 05:24:26;;;;;;;13.68;4.40;;;22.20;99.90;;;;;;5005399;28;20025;-75
2022/06/19 05:26:52;;;;;;;13.05;4.15;;;22.30;99.90;;;;;;5033022;28;20636;-75
2022/06/19 05:29:18;;;;;;;9.73;4.68;;;22.40;99.90;;;;;;5018423;28;20088;-75
2022/06/19 05:31:44;;;;;;;9.45;4.28;;;22.60;99.90;;;;;;5032383;28;20034;-75
2022/06/19 05:34:09;;;;;;;7.85;3.88;;;22.80;99.90;;;;;;5032746;28;20475;-75
2022/06/19 05:36:35;;;;;;;8.52;4.03;;;23.00;99.90;;;;;;5032099;28;20495;-74
2022/06/19 05:39:01;;;;;;;7.30;3.85;;;23.00;99.90;;;;;;5032247;28;20039;-74
2022/06/19 05:41:29;;;;;;;6.28;3.50;;;23.10;99.90;;;;;;5032312;28;20033;-77
2022/06/19 05:43:54;;;;;;;8.23;3.33;;;23.20;99.90;;;;;;5028004;28;20025;-75
2022/06/19 05:46:21;;;;;;;5.80;3.33;;;23.20;99.90;;;;;;5014988;28;20533;-75
2022/06/19 05:48:47;;;;;;;5.72;3.30;;;23.20;99.90;;;;;;5032550;28;20033;-75
2022/06/19 05:51:15;;;;;;;6.97;3.50;;;23.50;99.90;;;;;;5021068;28;20029;-75
2022/06/19 05:53:43;;;;;;;6.50;3.47;;;23.60;99.90;;;;;;5019586;28;20484;-75
2022/06/19 05:56:10;;;;;;;6.07;3.20;;;23.80;99.90;;;;;;5020551;28;20454;-75
2022/06/19 05:58:37;;;;;;;9.02;3.72;;;23.70;99.90;;;;;;5032370;28;20029;-75
2022/06/19 06:01:04;;;;;;;5.88;3.22;;;24.00;99.90;;;;;;5031797;28;20030;-75
2022/06/19 06:03:30;;;;;;;8.18;3.88;;;24.20;99.90;;;;;;5032364;28;20438;-75
2022/06/19 06:06:04;;;;;;;6.97;3.03;;;24.30;99.90;;;;;;5032175;28;20104;-76
2022/06/19 06:08:30;;;;;;;6.60;3.28;;;24.50;99.90;;;;;;5032190;28;20072;-75
2022/06/19 06:10:55;;;;;;;6.55;2.95;;;24.50;99.90;;;;;;5031674;28;20049;-76
2022/06/19 06:13:21;;;;;;;7.72;3.10;;;24.70;99.90;;;;;;5032266;28;20555;-76
2022/06/19 06:15:48;;;;;;;7.80;3.65;;;24.80;99.90;;;;;;5032018;28;20588;-76
2022/06/19 06:18:14;;;;;;;8.50;3.22;;;24.80;99.90;;;;;;5032127;28;20100;-76
2022/06/19 06:20:41;;;;;;;7.03;3.20;;;24.80;99.90;;;;;;5018813;28;20456;-75
2022/06/19 06:23:07;;;;;;;9.10;3.47;;;25.00;99.90;;;;;;5025615;28;20025;-76
2022/06/19 06:25:32;;;;;;;8.90;3.08;;;25.20;99.80;;;;;;5014353;28;20026;-75
2022/06/19 06:27:58;;;;;;;6.15;3.03;;;25.40;99.60;;;;;;5031865;28;20141;-75
2022/06/19 06:30:24;;;;;;;9.75;3.17;;;25.50;99.50;;;;;;5031053;28;20048;-75
2022/06/19 06:32:49;;;;;;;4.68;3.00;;;25.60;98.60;;;;;;5031704;28;20022;-73
2022/06/19 06:35:15;;;;;;;7.50;3.10;;;25.70;98.90;;;;;;5031646;28;20092;-74
2022/06/19 06:37:41;;;;;;;7.95;3.13;;;25.80;98.80;;;;;;5031655;28;20026;-75
2022/06/19 06:40:08;;;;;;;7.10;3.17;;;26.00;98.80;;;;;;5031415;28;20025;-74
2022/06/19 06:42:34;;;;;;;5.18;2.63;;;26.00;97.70;;;;;;5031104;28;20029;-74
2022/06/19 06:45:00;;;;;;;6.88;2.83;;;26.00;98.50;;;;;;5031588;28;20029;-74
2022/06/19 06:47:26;;;;;;;9.60;3.55;;;26.20;98.00;;;;;;5031593;28;20034;-74
2022/06/19 06:49:51;;;;;;;7.13;3.03;;;26.10;97.70;;;;;;5031209;28;20025;-75
2022/06/19 06:52:17;;;;;;;7.15;3.05;;;26.30;98.00;;;;;;5030923;28;20040;-74
2022/06/19 06:54:43;;;;;;;8.32;3.40;;;26.40;97.20;;;;;;5030139;28;20040;-73
2022/06/19 06:57:09;;;;;;;9.65;3.50;;;26.40;97.20;;;;;;5031678;28;20056;-73
2022/06/19 06:59:36;;;;;;;6.75;3.03;;;26.50;97.00;;;;;;5031536;28;20053;-73
2022/06/19 07:02:02;;;;;;;7.78;3.50;;;26.40;96.90;;;;;;5031031;28;20067;-74
2022/06/19 07:04:28;;;;;;;9.43;3.30;;;26.50;97.10;;;;;;5031326;28;20037;-74
2022/06/19 07:06:53;;;;;;;7.10;3.20;;;26.60;96.90;;;;;;5025541;28;20034;-72
2022/06/19 07:09:19;;;;;;;8.93;4.00;;;26.60;96.70;;;;;;5031576;28;20037;-73
2022/06/19 07:11:46;;;;;;;7.35;3.33;;;26.60;96.40;;;;;;5030974;28;20033;-73
2022/06/19 07:14:13;;;;;;;10.38;3.47;;;26.80;96.90;;;;;;5024532;28;20029;-75
2022/06/19 07:16:40;;;;;;;10.02;3.63;;;27.10;96.60;;;;;;5031406;28;20084;-75
2022/06/19 07:19:06;;;;;;;9.30;3.63;;;26.90;96.30;;;;;;5031286;28;20013;-74
2022/06/19 07:21:32;;;;;;;7.40;3.75;;;27.10;96.60;;;;;;5030701;28;20040;-74
2022/06/19 07:23:58;;;;;;;8.88;3.60;;;27.10;96.30;;;;;;5031024;28;20523;-75
2022/06/19 07:26:25;;;;;;;10.48;3.47;;;27.20;95.90;;;;;;5031278;28;20056;-75
2022/06/19 07:28:51;;;;;;;8.95;3.50;;;27.40;95.80;;;;;;5031182;28;20083;-74
2022/06/19 07:31:16;;;;;;;9.73;4.05;;;27.40;96.10;;;;;;5030457;28;20493;-74
2022/06/19 07:33:42;;;;;;;8.25;3.75;;;27.40;95.70;;;;;;5029825;28;20026;-75
2022/06/19 07:36:13;;;;;;;8.68;3.70;;;27.30;95.60;;;;;;5029731;28;20021;-75
2022/06/19 07:38:39;;;;;;;13.98;3.65;;;27.50;95.90;;;;;;5030950;28;20038;-74
2022/06/19 07:41:05;;;;;;;6.95;3.70;;;27.60;95.60;;;;;;5029198;28;20460;-74
2022/06/19 07:43:30;;;;;;;4.70;3.35;;;27.70;95.80;;;;;;5031196;28;20577;-75
2022/06/19 07:45:56;;;;;;;10.65;3.67;;;27.90;95.80;;;;;;5030823;28;20427;-75
2022/06/19 07:51:19;;;;;;;12.70;4.00;;;28.00;95.20;;;;;;4998183;28;20074;-74
2022/06/19 07:53:45;;;;;;;9.25;3.63;;;28.00;95.40;;;;;;5030755;28;20421;-73
2022/06/19 07:56:10;;;;;;;10.05;4.22;;;28.10;95.20;;;;;;5030866;28;20021;-73
2022/06/19 07:58:36;;;;;;;7.57;3.67;;;28.30;95.60;;;;;;5031033;28;20026;-73
2022/06/19 08:01:02;;;;;;;11.25;4.00;;;28.40;95.70;;;;;;5031346;28;20025;-73
2022/06/19 08:03:28;;;;;;;9.55;4.07;;;28.50;94.90;;;;;;5034668;28;20446;-73
2022/06/19 08:05:54;;;;;;;11.80;4.20;;;28.70;93.90;;;;;;5034262;28;20109;-74
2022/06/19 08:08:24;;;;;;;10.18;4.22;;;28.60;94.60;;;;;;5016676;28;20057;-74
2022/06/19 08:10:51;;;;;;;8.15;3.50;;;28.90;94.80;;;;;;5033647;28;20116;-74
2022/06/19 08:13:23;;;;;;;11.05;4.05;;;29.00;95.00;;;;;;5034442;28;20179;-75
2022/06/19 08:15:54;;;;;;;7.85;3.65;;;29.20;94.80;;;;;;5034120;28;20026;-73
2022/06/19 08:18:20;;;;;;;9.68;4.00;;;29.40;95.40;;;;;;5034257;28;20025;-73
2022/06/19 08:20:47;;;;;;;9.80;3.70;;;29.60;95.00;;;;;;5033584;28;20144;-73
2022/06/19 08:23:13;;;;;;;9.65;4.47;;;29.50;94.10;;;;;;5034727;28;20022;-74
2022/06/19 08:25:40;;;;;;;10.45;3.92;;;29.50;94.80;;;;;;5033947;28;20492;-74
2022/06/19 08:28:06;;;;;;;13.40;4.80;;;29.50;93.60;;;;;;5034053;28;20056;-74
2022/06/19 08:30:35;;;;;;;11.48;4.60;;;29.40;94.20;;;;;;5033207;28;20057;-73
2022/06/19 08:33:01;;;;;;;11.68;4.50;;;29.30;94.00;;;;;;5034032;28;20033;-73
2022/06/19 08:35:28;;;;;;;11.77;4.78;;;29.50;94.00;;;;;;5016098;28;20022;-73
2022/06/19 08:38:06;;;;;;;13.02;4.60;;;29.40;93.40;;;;;;5034002;28;20667;-75
2022/06/19 08:41:00;;;;;;;16.85;6.18;;;29.50;94.20;;;;;;5033277;28;20029;-75
2022/06/19 08:43:37;;;;;;;12.13;5.15;;;30.10;93.80;;;;;;5034062;28;20091;-74
2022/06/19 08:46:29;;;;;;;13.50;4.78;;;30.00;93.70;;;;;;5034167;28;20442;-75
2022/06/19 08:49:32;;;;;;;11.65;5.22;;;30.50;94.10;;;;;;5020465;28;20567;-75
2022/06/19 08:52:18;;;;;;;15.25;5.70;;;30.20;92.50;;;;;;5002646;28;20038;-77
2022/06/19 08:55:09;;;;;;;;;;;29.90;92.70;;;;;;5034168;28;20026;-77
2022/06/19 08:58:02;;;;;;;9.93;5.50;;;29.90;93.20;;;;;;5030506;28;19959;-77
2022/06/19 09:00:49;;;;;;;13.10;5.80;;;29.70;92.60;;;;;;5010270;28;20028;-76
2022/06/19 09:06:56;;;;;;;13.68;6.22;;;30.40;92.00;;;;;;5004237;28;20387;-76
2022/06/19 09:09:31;;;;;;;14.38;5.70;;;30.70;92.30;;;;;;5033519;28;20365;-76
2022/06/19 09:12:15;;;;;;;12.00;5.88;;;30.90;92.50;;;;;;5032605;28;20075;-77
2022/06/19 09:15:05;;;;;;;13.75;6.30;;;30.60;92.40;;;;;;5033186;28;20056;-76
2022/06/19 09:17:45;;;;;;;14.82;6.10;;;30.40;92.00;;;;;;5033210;28;20091;-76
2022/06/19 09:20:23;;;;;;;11.45;6.05;;;30.60;91.90;;;;;;5032831;28;20021;-76
2022/06/19 09:23:09;;;;;;;10.52;5.70;;;30.70;92.60;;;;;;5033840;28;20026;-76
2022/06/19 09:25:49;;;;;;;14.75;5.63;;;30.60;92.20;;;;;;5033049;28;20029;-76
2022/06/19 09:28:39;;;;;;;15.95;6.18;;;30.90;92.10;;;;;;5024187;28;20018;-77
2022/06/19 09:31:31;;;;;;;14.98;6.10;;;30.90;91.80;;;;;;5006345;28;20487;-76
2022/06/19 09:34:15;;;;;;;12.60;6.30;;;31.10;91.90;;;;;;5018332;28;20036;-77
2022/06/19 09:37:22;;;;;;;19.50;6.47;;;31.00;91.70;;;;;;5032881;28;20026;-76
2022/06/19 09:39:56;;;;;;;11.63;6.10;;;31.20;91.90;;;;;;5032395;28;20038;-75
2022/06/19 09:42:24;;;;;;;12.77;6.97;;;31.30;91.70;;;;;;5019308;28;20391;-76
2022/06/19 09:45:10;;;;;;;14.95;6.05;;;31.40;91.60;;;;;;5032735;28;20026;-76
2022/06/19 09:47:54;;;;;;;;;;;31.60;91.50;;;;;;5033240;28;20026;-75
2022/06/19 09:50:29;;;;;;;16.25;6.82;;;32.00;91.90;;;;;;5032204;28;19909;-76
2022/06/19 09:53:10;;;;;;;15.48;6.10;;;31.70;91.00;;;;;;5032674;28;20056;-76
2022/06/19 09:55:44;;;;;;;15.10;7.93;;;31.90;91.70;;;;;;5015049;28;20028;-77
2022/06/19 09:58:15;;;;;;;17.10;7.30;;;32.10;91.10;;;;;;5032475;28;20025;-76
2022/06/19 10:00:44;;;;;;;13.82;5.93;;;32.60;91.00;;;;;;5021897;28;20028;-76
2022/06/19 10:03:20;;;;;;;26.42;12.30;;;32.50;90.20;;;;;;5017988;28;20365;-76
2022/06/19 10:06:19;;;;;;;23.48;14.25;;;32.70;90.70;;;;;;5021907;28;20104;-76
2022/06/19 10:08:50;;;;;;;17.73;8.15;;;32.60;90.10;;;;;;5009526;28;20136;-76
2022/06/19 10:11:21;;;;;;;14.32;6.50;;;32.80;89.00;;;;;;5015012;28;20064;-76
2022/06/19 10:14:00;;;;;;;15.23;7.15;;;32.50;87.40;;;;;;5032445;28;20021;-76
2022/06/19 10:16:47;;;;;;;13.07;6.75;;;32.60;88.60;;;;;;5032408;28;20025;-76
2022/06/19 10:19:21;;;;;;;16.05;7.78;;;32.70;87.80;;;;;;5032668;28;20030;-76
2022/06/19 10:25:01;;;;;;;16.65;6.60;;;33.00;87.40;;;;;;5031698;28;20152;-76
2022/06/19 10:28:00;;;;;;;16.85;7.85;;;32.80;86.10;;;;;;5032150;28;20082;-76
2022/06/19 10:30:40;;;;;;;19.98;7.80;;;32.60;87.40;;;;;;5031435;28;20087;-76
2022/06/19 10:33:14;;;;;;;17.88;7.60;;;32.50;87.30;;;;;;5031922;28;20021;-77
2022/06/19 10:36:08;;;;;;;24.30;16.67;;;32.90;86.20;;;;;;5032023;28;20060;-76
2022/06/19 10:39:11;;;;;;;14.32;6.78;;;33.20;88.10;;;;;;5007242;28;20453;-77
2022/06/19 10:42:10;;;;;;;19.17;7.03;;;33.60;87.60;;;;;;5031251;28;20021;-76
2022/06/19 10:44:56;;;;;;;16.25;10.82;;;33.40;85.90;;;;;;5021817;28;20061;-76
2022/06/19 10:47:30;;;;;;;22.10;10.63;;;33.10;86.20;;;;;;5006783;28;20614;-76
2022/06/19 10:50:24;;;;;;;17.15;8.55;;;33.20;85.60;;;;;;5012680;28;20034;-76
2022/06/19 10:53:08;;;;;;;17.13;10.82;;;33.40;86.40;;;;;;5023410;28;20095;-76
2022/06/19 10:55:42;;;;;;;25.52;12.60;;;33.30;85.80;;;;;;5008924;28;20053;-76
2022/06/19 10:58:23;;;;;;;11.73;6.05;;;33.70;85.90;;;;;;5032538;28;20171;-77
2022/06/19 11:00:56;;;;;;;32.80;19.90;;;33.30;84.60;;;;;;5031754;28;20021;-77
2022/06/19 11:06:59;;;;;;;19.63;10.40;;;33.50;84.40;;;;;;5031901;28;20057;-77
2022/06/19 11:09:42;;;;;;;25.80;14.80;;;34.20;85.50;;;;;;5026318;28;20050;-78
2022/06/19 11:12:37;;;;;;;15.10;8.18;;;33.80;84.40;;;;;;5031939;28;20151;-76
2022/06/19 11:15:24;;;;;;;15.73;6.78;;;34.20;85.20;;;;;;5024927;28;20171;-77
2022/06/19 11:18:15;;;;;;;11.98;6.60;;;34.10;83.90;;;;;;5036747;28;20021;-76
2022/06/19 11:21:05;;;;;;;13.95;6.15;;;34.20;83.70;;;;;;5015178;28;20026;-76
2022/06/19 11:23:57;;;;;;;16.17;6.80;;;34.40;83.80;;;;;;5025508;28;20032;-76
2022/06/19 11:26:42;;;;;;;15.52;7.30;;;34.50;84.40;;;;;;5021002;28;20376;-76
2022/06/19 11:29:14;;;;;;;12.43;6.45;;;34.40;82.80;;;;;;5032085;28;20072;-76
2022/06/19 11:32:04;;;;;;;19.77;7.30;;;34.30;83.70;;;;;;5013607;28;20159;-76
2022/06/19 11:34:51;;;;;;;18.25;6.97;;;34.20;84.10;;;;;;5011782;28;20024;-75
2022/06/19 11:37:31;;;;;;;15.52;6.70;;;34.30;82.60;;;;;;5003831;28;20502;-77
2022/06/19 11:39:59;;;;;;;12.77;6.95;;;34.50;85.50;;;;;;5024464;28;20079;-76
2022/06/19 11:42:36;;;;;;;13.57;6.60;;;34.60;84.00;;;;;;5034666;28;20751;-76
2022/06/19 11:45:13;;;;;;;21.15;7.03;;;34.10;82.30;;;;;;5035393;28;20026;-77
2022/06/19 11:48:12;;;;;;;18.83;6.93;;;34.40;83.20;;;;;;5034908;28;20029;-77
2022/06/19 11:50:42;;;;;;;16.23;7.20;;;34.80;82.40;;;;;;5011032;28;20506;-77
2022/06/19 11:53:12;;;;;;;17.17;7.20;;;34.50;82.20;;;;;;5036111;28;20025;-76
2022/06/19 11:55:48;;;;;;;14.68;6.30;;;34.50;81.80;;;;;;5035896;28;20022;-77
2022/06/19 11:58:41;;;;;;;16.58;6.60;;;34.50;81.40;;;;;;5034950;28;20114;-76
2022/06/19 12:01:10;;;;;;;16.48;6.70;;;34.70;79.40;;;;;;5034166;28;20411;-77
2022/06/19 12:03:59;;;;;;;13.48;6.35;;;35.40;80.30;;;;;;5034673;28;20090;-77
2022/06/19 12:06:45;;;;;;;24.23;6.97;;;35.20;79.00;;;;;;5029984;28;20090;-77
2022/06/19 12:09:38;;;;;;;14.55;6.65;;;34.80;79.30;;;;;;5034537;28;20033;-76
2022/06/19 12:12:13;;;;;;;15.27;6.63;;;34.80;79.30;;;;;;5022395;28;20056;-77
2022/06/19 12:15:04;;;;;;;22.45;6.63;;;34.60;79.00;;;;;;5030017;28;20104;-77
2022/06/19 12:17:33;;;;;;;12.48;6.30;;;34.40;78.00;;;;;;4990400;28;20025;-77
2022/06/19 12:20:03;;;;;;;16.95;6.43;;;34.60;77.90;;;;;;5015063;28;20091;-77
2022/06/19 12:22:47;;;;;;;15.02;6.22;;;35.00;78.40;;;;;;5033402;28;20065;-77
2022/06/19 12:25:28;;;;;;;14.25;6.35;;;34.90;78.30;;;;;;5024760;28;20571;-77
2022/06/19 12:28:05;;;;;;;13.38;6.35;;;35.30;80.00;;;;;;5022460;28;20025;-77
2022/06/19 12:30:44;;;;;;;15.63;6.65;;;35.10;78.70;;;;;;5033468;28;20033;-77
2022/06/19 12:33:20;;;;;;;21.75;6.93;;;34.70;77.80;;;;;;5034182;28;20087;-76
2022/06/19 12:35:48;;;;;;;15.23;6.00;;;35.20;79.30;;;;;;5018190;28;20056;-76
2022/06/19 12:38:17;;;;;;;20.52;7.60;;;35.70;78.50;;;;;;5016075;28;20025;-76
2022/06/19 12:40:48;;;;;;;20.55;6.43;;;35.20;77.60;;;;;;5033007;28;20022;-76
2022/06/19 12:43:19;;;;;;;15.20;6.60;;;35.30;79.40;;;;;;5034077;28;20383;-76
2022/06/19 12:45:56;;;;;;;13.40;6.72;;;35.40;79.00;;;;;;5010768;28;20431;-76
2022/06/19 12:48:33;;;;;;;13.18;6.32;;;35.30;78.20;;;;;;5013034;28;20030;-78
2022/06/19 12:51:01;;;;;;;13.75;6.97;;;35.70;79.90;;;;;;5034450;28;20022;-77
2022/06/19 12:53:45;;;;;;;20.30;7.38;;;35.50;79.00;;;;;;5033234;28;20025;-76
2022/06/19 12:56:33;;;;;;;15.40;6.32;;;35.10;79.90;;;;;;5011085;28;20108;-76
2022/06/19 13:00:04;;;;;;;17.48;7.15;;;35.70;78.80;;;;;;5033489;28;20026;-78
2022/06/19 13:02:50;;;;;;;16.60;6.72;;;35.60;78.70;;;;;;4952571;28;20065;-76
2022/06/19 13:05:47;;;;;;;18.77;7.00;;;36.00;79.70;;;;;;4961186;28;20031;-77
2022/06/19 13:08:41;;;;;;;15.25;6.90;;;36.30;80.80;;;;;;5011887;28;20137;-77
2022/06/19 13:11:25;;;;;;;18.52;7.43;;;36.30;78.50;;;;;;5032319;28;20030;-76
2022/06/19 13:13:53;;;;;;;15.90;7.07;;;36.00;78.30;;;;;;5033233;28;20026;-76
2022/06/19 13:16:39;;;;;;;20.00;7.63;;;36.20;77.80;;;;;;5032896;28;20045;-76
2022/06/19 13:19:21;;;;;;;14.75;7.43;;;36.10;78.50;;;;;;5029340;28;20021;-76
2022/06/19 13:21:57;;;;;;;18.20;8.05;;;36.20;79.00;;;;;;5031804;28;20480;-76